sensor_id;sensor_type;location;lat;lon;timestamp;pressure;altitude;pressure_sealevel;temperature;humidity
49397;BME280;35615;41.410;2.194;2023-05-14T00:02:02;101579.34;;;19.27;55.24
49397;BME280;35615;41.410;2.194;2023-05-14T00:04:30;101582.69;;;19.17;54.96
49397;BME280;35615;41.410;2.194;2023-05-14T00:06:57;101578.47;;;19.25;54.75
49397;BME280;35615;41.410;2.194;2023-05-14T00:09:24;101574.94;;;19.23;54.97
49397;BME280;35615;41.410;2.194;2023-05-14T00:11:51;101571.56;;;19.29;54.71
49397;BME280;35615;41.410;2.194;2023-05-14T00:14:19;101567.09;;;19.25;54.85
49397;BME280;35615;41.410;2.194;2023-05-14T00:16:48;101568.06;;;19.30;54.82
49397;BME280;35615;41.410;2.194;2023-05-14T00:19:15;101575.88;;;19.28;54.73
49397;BME280;35615;41.410;2.194;2023-05-14T00:21:43;101570.53;;;19.21;55.12
49397;BME280;35615;41.410;2.194;2023-05-14T00:24:10;101575.78;;;19.22;55.00
49397;BME280;35615;41.410;2.194;2023-05-14T00:26:37;101568.75;;;19.18;55.07
49397;BME280;35615;41.410;2.194;2023-05-14T00:29:04;101567.84;;;19.17;55.29
49397;BME280;35615;41.410;2.194;2023-05-14T00:31:32;101567.03;;;19.19;55.07
49397;BME280;35615;41.410;2.194;2023-05-14T00:33:59;101560.06;;;19.22;55.36
49397;BME280;35615;41.410;2.194;2023-05-14T00:36:26;101560.94;;;19.21;54.93
49397;BME280;35615;41.410;2.194;2023-05-14T00:38:53;101556.59;;;19.23;55.24
49397;BME280;35615;41.410;2.194;2023-05-14T00:41:21;101562.75;;;19.25;55.05
49397;BME280;35615;41.410;2.194;2023-05-14T00:43:49;101559.19;;;19.20;55.07
49397;BME280;35615;41.410;2.194;2023-05-14T00:46:16;101561.78;;;19.19;55.00
49397;BME280;35615;41.410;2.194;2023-05-14T00:48:43;101556.47;;;19.15;54.95
49397;BME280;35615;41.410;2.194;2023-05-14T00:51:11;101560.03;;;19.19;54.89
49397;BME280;35615;41.410;2.194;2023-05-14T00:53:38;101553.91;;;19.19;54.44
49397;BME280;35615;41.410;2.194;2023-05-14T00:56:06;101547.81;;;19.20;54.44
49397;BME280;35615;41.410;2.194;2023-05-14T00:58:34;101543.53;;;19.25;54.79
49397;BME280;35615;41.410;2.194;2023-05-14T01:01:01;101540.03;;;19.26;54.63
49397;BME280;35615;41.410;2.194;2023-05-14T01:03:30;101546.22;;;19.29;54.55
49397;BME280;35615;41.410;2.194;2023-05-14T01:11:22;101533.78;;;19.17;54.38
49397;BME280;35615;41.410;2.194;2023-05-14T01:16:47;101522.38;;;19.12;54.24
49397;BME280;35615;41.410;2.194;2023-05-14T01:21:55;101516.38;;;19.18;54.13
49397;BME280;35615;41.410;2.194;2023-05-14T01:24:30;101512.81;;;19.16;54.13
49397;BME280;35615;41.410;2.194;2023-05-14T01:27:06;101518.06;;;19.16;54.26
49397;BME280;35615;41.410;2.194;2023-05-14T01:29:40;101518.06;;;19.16;54.13
49397;BME280;35615;41.410;2.194;2023-05-14T01:32:09;101515.34;;;19.08;54.14
49397;BME280;35615;41.410;2.194;2023-05-14T01:34:37;101518.88;;;19.10;54.19
49397;BME280;35615;41.410;2.194;2023-05-14T01:37:08;101514.53;;;19.14;54.08
49397;BME280;35615;41.410;2.194;2023-05-14T01:39:43;101508.47;;;19.16;54.16
49397;BME280;35615;41.410;2.194;2023-05-14T01:42:14;101508.50;;;19.18;54.17
49397;BME280;35615;41.410;2.194;2023-05-14T01:44:41;101503.19;;;19.15;54.36
49397;BME280;35615;41.410;2.194;2023-05-14T01:47:09;101496.22;;;19.15;54.33
49397;BME280;35615;41.410;2.194;2023-05-14T01:49:37;101504.91;;;19.11;55.13
49397;BME280;35615;41.410;2.194;2023-05-14T01:52:05;101503.13;;;19.09;54.54
49397;BME280;35615;41.410;2.194;2023-05-14T01:54:37;101502.22;;;19.07;54.97
49397;BME280;35615;41.410;2.194;2023-05-14T01:57:07;101506.16;;;18.80;55.95
49397;BME280;35615;41.410;2.194;2023-05-14T01:59:35;101510.47;;;18.78;56.08
49397;BME280;35615;41.410;2.194;2023-05-14T02:02:05;101509.66;;;18.82;56.31
49397;BME280;35615;41.410;2.194;2023-05-14T02:04:34;101508.91;;;18.88;56.21
49397;BME280;35615;41.410;2.194;2023-05-14T02:07:01;101512.41;;;18.89;56.05
49397;BME280;35615;41.410;2.194;2023-05-14T02:09:31;101507.97;;;18.84;56.39
49397;BME280;35615;41.410;2.194;2023-05-14T02:12:00;101511.25;;;18.73;57.11
49397;BME280;35615;41.410;2.194;2023-05-14T02:14:31;101505.28;;;18.80;56.35
49397;BME280;35615;41.410;2.194;2023-05-14T02:17:04;101508.53;;;18.67;56.95
49397;BME280;35615;41.410;2.194;2023-05-14T02:19:38;101516.25;;;18.62;57.38
49397;BME280;35615;41.410;2.194;2023-05-14T02:22:13;101510.91;;;18.54;57.09
49397;BME280;35615;41.410;2.194;2023-05-14T02:24:40;101507.41;;;18.54;56.94
49397;BME280;35615;41.410;2.194;2023-05-14T02:27:08;101517.88;;;18.52;57.14
49397;BME280;35615;41.410;2.194;2023-05-14T02:29:38;101509.16;;;18.53;56.84
49397;BME280;35615;41.410;2.194;2023-05-14T02:32:06;101502.22;;;18.55;56.79
49397;BME280;35615;41.410;2.194;2023-05-14T02:34:36;101496.81;;;18.46;57.08
49397;BME280;35615;41.410;2.194;2023-05-14T02:37:05;101497.72;;;18.50;56.98
49397;BME280;35615;41.410;2.194;2023-05-14T02:39:32;101492.47;;;18.48;57.26
49397;BME280;35615;41.410;2.194;2023-05-14T02:41:59;101487.31;;;18.51;56.89
49397;BME280;35615;41.410;2.194;2023-05-14T02:44:26;101491.69;;;18.52;56.97
49397;BME280;35615;41.410;2.194;2023-05-14T02:46:54;101491.59;;;18.48;56.87
49397;BME280;35615;41.410;2.194;2023-05-14T02:49:21;101491.56;;;18.45;57.09
49397;BME280;35615;41.410;2.194;2023-05-14T02:51:48;101495.94;;;18.46;57.31
49397;BME280;35615;41.410;2.194;2023-05-14T02:54:15;101495.00;;;18.42;57.29
49397;BME280;35615;41.410;2.194;2023-05-14T02:56:43;101492.38;;;18.42;57.67
49397;BME280;35615;41.410;2.194;2023-05-14T02:59:10;101489.81;;;18.45;57.52
49397;BME280;35615;41.410;2.194;2023-05-14T03:01:37;101484.53;;;18.42;57.47
49397;BME280;35615;41.410;2.194;2023-05-14T03:04:06;101485.31;;;18.38;57.61
49397;BME280;35615;41.410;2.194;2023-05-14T03:06:34;101481.75;;;18.33;57.68
49397;BME280;35615;41.410;2.194;2023-05-14T03:09:02;101480.09;;;18.38;57.58
49397;BME280;35615;41.410;2.194;2023-05-14T03:11:29;101490.56;;;18.40;57.54
49397;BME280;35615;41.410;2.194;2023-05-14T03:13:56;101496.63;;;18.36;57.84
49397;BME280;35615;41.410;2.194;2023-05-14T03:16:24;101486.09;;;18.31;57.93
49397;BME280;35615;41.410;2.194;2023-05-14T03:18:51;101488.81;;;18.39;57.84
49397;BME280;35615;41.410;2.194;2023-05-14T03:21:18;101488.81;;;18.39;57.86
49397;BME280;35615;41.410;2.194;2023-05-14T03:23:47;101485.28;;;18.35;57.79
49397;BME280;35615;41.410;2.194;2023-05-14T03:26:17;101485.22;;;18.32;57.82
49397;BME280;35615;41.410;2.194;2023-05-14T03:28:47;101489.63;;;18.35;57.82
49397;BME280;35615;41.410;2.194;2023-05-14T03:31:14;101490.53;;;18.37;57.59
49397;BME280;35615;41.410;2.194;2023-05-14T03:33:44;101488.72;;;18.33;58.00
49397;BME280;35615;41.410;2.194;2023-05-14T03:36:11;101485.28;;;18.37;58.03
49397;BME280;35615;41.410;2.194;2023-05-14T03:38:39;101487.06;;;18.38;57.85
49397;BME280;35615;41.410;2.194;2023-05-14T03:41:06;101488.75;;;18.36;57.82
49397;BME280;35615;41.410;2.194;2023-05-14T03:43:33;101488.69;;;18.31;57.83
49397;BME280;35615;41.410;2.194;2023-05-14T03:46:00;101478.25;;;18.33;58.02
49397;BME280;35615;41.410;2.194;2023-05-14T03:48:28;101485.28;;;18.37;57.78
49397;BME280;35615;41.410;2.194;2023-05-14T03:50:55;101479.19;;;18.36;57.95
49397;BME280;35615;41.410;2.194;2023-05-14T03:53:22;101477.41;;;18.34;57.92
49397;BME280;35615;41.410;2.194;2023-05-14T03:55:49;101476.50;;;18.32;57.88
49397;BME280;35615;41.410;2.194;2023-05-14T03:58:16;101473.03;;;18.34;57.86
49397;BME280;35615;41.410;2.194;2023-05-14T04:00:50;101480.00;;;18.32;58.21
49397;BME280;35615;41.410;2.194;2023-05-14T04:03:17;101477.41;;;18.34;57.93
49397;BME280;35615;41.410;2.194;2023-05-14T04:05:45;101486.09;;;18.33;57.98
49397;BME280;35615;41.410;2.194;2023-05-14T04:08:12;101481.72;;;18.30;57.96
49397;BME280;35615;41.410;2.194;2023-05-14T04:10:41;101487.84;;;18.32;57.96
49397;BME280;35615;41.410;2.194;2023-05-14T04:13:08;101487.63;;;18.21;57.78
49397;BME280;35615;41.410;2.194;2023-05-14T04:15:38;101495.53;;;18.24;57.73
49397;BME280;35615;41.410;2.194;2023-05-14T04:18:08;101484.25;;;18.27;57.57
49397;BME280;35615;41.410;2.194;2023-05-14T04:20:35;101484.25;;;18.27;57.56
49397;BME280;35615;41.410;2.194;2023-05-14T04:23:02;101484.25;;;18.28;57.64
49397;BME280;35615;41.410;2.194;2023-05-14T04:25:30;101484.34;;;18.32;57.56
49397;BME280;35615;41.410;2.194;2023-05-14T04:27:57;101485.88;;;18.20;57.48
49397;BME280;35615;41.410;2.194;2023-05-14T04:30:24;101481.56;;;18.24;57.34
49397;BME280;35615;41.410;2.194;2023-05-14T04:32:52;101477.06;;;18.15;57.31
49397;BME280;35615;41.410;2.194;2023-05-14T04:35:21;101478.75;;;18.13;57.63
49397;BME280;35615;41.410;2.194;2023-05-14T04:37:50;101473.78;;;18.27;57.01
49397;BME280;35615;41.410;2.194;2023-05-14T04:40:18;101480.56;;;18.17;57.11
49397;BME280;35615;41.410;2.194;2023-05-14T04:42:45;101481.53;;;18.21;57.24
49397;BME280;35615;41.410;2.194;2023-05-14T04:45:13;101477.84;;;18.10;57.56
49397;BME280;35615;41.410;2.194;2023-05-14T04:47:40;101481.38;;;18.13;57.30
49397;BME280;35615;41.410;2.194;2023-05-14T04:50:08;101479.59;;;18.11;57.46
49397;BME280;35615;41.410;2.194;2023-05-14T04:52:36;101473.97;;;17.91;57.48
49397;BME280;35615;41.410;2.194;2023-05-14T04:55:04;101476.78;;;18.00;57.13
49397;BME280;35615;41.410;2.194;2023-05-14T04:57:35;101478.56;;;18.03;57.16
49397;BME280;35615;41.410;2.194;2023-05-14T05:00:02;101477.81;;;18.08;56.87
49397;BME280;35615;41.410;2.194;2023-05-14T05:02:31;101474.31;;;18.08;57.02
49397;BME280;35615;41.410;2.194;2023-05-14T05:05:00;101482.88;;;18.00;57.19
49397;BME280;35615;41.410;2.194;2023-05-14T05:07:28;101478.28;;;17.89;56.84
49397;BME280;35615;41.410;2.194;2023-05-14T05:09:55;101486.38;;;18.01;56.66
49397;BME280;35615;41.410;2.194;2023-05-14T05:12:22;101482.81;;;17.96;56.99
49397;BME280;35615;41.410;2.194;2023-05-14T05:14:52;101489.00;;;18.01;57.07
49397;BME280;35615;41.410;2.194;2023-05-14T05:17:19;101484.66;;;18.03;56.94
49397;BME280;35615;41.410;2.194;2023-05-14T05:19:47;101487.22;;;18.00;56.19
49397;BME280;35615;41.410;2.194;2023-05-14T05:22:14;101488.19;;;18.05;55.99
49397;BME280;35615;41.410;2.194;2023-05-14T05:24:41;101488.09;;;17.99;56.14
49397;BME280;35615;41.410;2.194;2023-05-14T05:27:09;101495.59;;;17.84;56.46
49397;BME280;35615;41.410;2.194;2023-05-14T05:29:36;101492.28;;;17.91;56.09
49397;BME280;35615;41.410;2.194;2023-05-14T05:32:03;101491.63;;;18.03;56.02
49397;BME280;35615;41.410;2.194;2023-05-14T05:34:31;101489.84;;;18.00;55.77
49397;BME280;35615;41.410;2.194;2023-05-14T05:37:00;101490.66;;;17.97;56.07
49397;BME280;35615;41.410;2.194;2023-05-14T05:39:27;101491.78;;;18.10;55.85
49397;BME280;35615;41.410;2.194;2023-05-14T05:42:01;101482.25;;;18.14;55.76
49397;BME280;35615;41.410;2.194;2023-05-14T05:44:28;101483.16;;;18.16;54.79
49397;BME280;35615;41.410;2.194;2023-05-14T05:46:55;101482.38;;;18.18;54.71
49397;BME280;35615;41.410;2.194;2023-05-14T05:49:23;101477.19;;;18.21;54.21
49397;BME280;35615;41.410;2.194;2023-05-14T05:51:50;101484.00;;;18.13;52.27
49397;BME280;35615;41.410;2.194;2023-05-14T05:54:17;101473.69;;;18.21;52.41
49397;BME280;35615;41.410;2.194;2023-05-14T05:56:44;101483.03;;;18.08;50.69
49397;BME280;35615;41.410;2.194;2023-05-14T05:59:12;101479.78;;;18.20;50.87
49397;BME280;35615;41.410;2.194;2023-05-14T06:01:39;101478.16;;;18.28;50.32
49397;BME280;35615;41.410;2.194;2023-05-14T06:04:07;101483.19;;;18.17;50.66
49397;BME280;35615;41.410;2.194;2023-05-14T06:06:34;101476.41;;;18.27;49.52
49397;BME280;35615;41.410;2.194;2023-05-14T06:09:01;101483.44;;;18.29;49.54
49397;BME280;35615;41.410;2.194;2023-05-14T06:11:28;101481.78;;;18.35;49.89
49397;BME280;35615;41.410;2.194;2023-05-14T06:13:55;101481.19;;;18.51;50.09
49397;BME280;35615;41.410;2.194;2023-05-14T06:16:23;101490.00;;;18.56;49.74
49397;BME280;35615;41.410;2.194;2023-05-14T06:18:50;101497.59;;;18.41;49.02
49397;BME280;35615;41.410;2.194;2023-05-14T06:21:18;101496.66;;;18.39;49.07
49397;BME280;35615;41.410;2.194;2023-05-14T06:23:45;101500.31;;;18.48;48.96
49397;BME280;35615;41.410;2.194;2023-05-14T06:26:13;101501.03;;;18.40;48.89
49397;BME280;35615;41.410;2.194;2023-05-14T06:28:40;101508.06;;;18.41;48.29
49397;BME280;35615;41.410;2.194;2023-05-14T06:31:07;101513.84;;;18.24;48.35
49397;BME280;35615;41.410;2.194;2023-05-14T06:33:35;101521.91;;;18.35;48.35
49397;BME280;35615;41.410;2.194;2023-05-14T06:36:05;101526.44;;;18.44;47.87
49397;BME280;35615;41.410;2.194;2023-05-14T06:38:33;101511.34;;;18.29;48.18
49397;BME280;35615;41.410;2.194;2023-05-14T06:41:01;101519.34;;;18.40;47.75
49397;BME280;35615;41.410;2.194;2023-05-14T06:43:28;101520.44;;;18.51;48.48
49397;BME280;35615;41.410;2.194;2023-05-14T06:45:58;101520.19;;;18.37;47.86
49397;BME280;35615;41.410;2.194;2023-05-14T06:48:29;101515.97;;;18.44;48.08
49397;BME280;35615;41.410;2.194;2023-05-14T06:50:56;101515.09;;;18.45;48.17
49397;BME280;35615;41.410;2.194;2023-05-14T06:53:23;101519.31;;;18.38;47.77
49397;BME280;35615;41.410;2.194;2023-05-14T06:55:54;101518.56;;;18.44;48.01
49397;BME280;35615;41.410;2.194;2023-05-14T06:58:22;101517.06;;;18.56;48.13
49397;BME280;35615;41.410;2.194;2023-05-14T07:00:49;101515.06;;;18.43;48.31
49397;BME280;35615;41.410;2.194;2023-05-14T07:03:16;101522.88;;;18.40;48.51
49397;BME280;35615;41.410;2.194;2023-05-14T07:05:43;101524.94;;;18.58;48.95
49397;BME280;35615;41.410;2.194;2023-05-14T07:08:12;101530.00;;;18.50;49.26
49397;BME280;35615;41.410;2.194;2023-05-14T07:10:39;101524.25;;;18.67;48.64
49397;BME280;35615;41.410;2.194;2023-05-14T07:13:07;101533.16;;;18.76;48.22
49397;BME280;35615;41.410;2.194;2023-05-14T07:15:34;101530.59;;;18.81;48.17
49397;BME280;35615;41.410;2.194;2023-05-14T07:18:01;101541.22;;;18.90;48.87
49397;BME280;35615;41.410;2.194;2023-05-14T07:20:28;101537.78;;;18.94;49.03
49397;BME280;35615;41.410;2.194;2023-05-14T07:22:55;101536.81;;;18.88;48.66
49397;BME280;35615;41.410;2.194;2023-05-14T07:25:22;101524.78;;;18.97;48.53
49397;BME280;35615;41.410;2.194;2023-05-14T07:27:50;101526.69;;;19.07;48.84
49397;BME280;35615;41.410;2.194;2023-05-14T07:30:19;101525.03;;;19.15;48.56
49397;BME280;35615;41.410;2.194;2023-05-14T07:32:46;101521.53;;;19.15;48.45
49397;BME280;35615;41.410;2.194;2023-05-14T07:35:14;101526.06;;;19.25;48.47
49397;BME280;35615;41.410;2.194;2023-05-14T07:37:42;101522.56;;;19.26;48.34
49397;BME280;35615;41.410;2.194;2023-05-14T07:40:10;101524.47;;;19.35;48.24
49397;BME280;35615;41.410;2.194;2023-05-14T07:42:42;101528.84;;;19.37;48.14
49397;BME280;35615;41.410;2.194;2023-05-14T07:45:12;101531.72;;;19.53;48.07
49397;BME280;35615;41.410;2.194;2023-05-14T07:47:42;101518.63;;;19.53;47.66
49397;BME280;35615;41.410;2.194;2023-05-14T07:50:10;101523.09;;;19.61;47.92
49397;BME280;35615;41.410;2.194;2023-05-14T07:52:37;101528.47;;;19.69;48.08
49397;BME280;35615;41.410;2.194;2023-05-14T07:55:05;101536.47;;;19.80;47.72
49397;BME280;35615;41.410;2.194;2023-05-14T07:57:32;101526.00;;;19.83;47.85
49397;BME280;35615;41.410;2.194;2023-05-14T07:59:59;101523.59;;;19.98;47.67
49397;BME280;35615;41.410;2.194;2023-05-14T08:02:27;101518.53;;;20.16;47.57
49397;BME280;35615;41.410;2.194;2023-05-14T08:04:54;101524.72;;;20.21;47.48
49397;BME280;35615;41.410;2.194;2023-05-14T08:07:21;101517.91;;;20.39;46.91
49397;BME280;35615;41.410;2.194;2023-05-14T08:09:48;101518.88;;;20.44;46.49
49397;BME280;35615;41.410;2.194;2023-05-14T08:12:16;101520.66;;;20.48;45.74
49397;BME280;35615;41.410;2.194;2023-05-14T08:14:49;101524.38;;;20.70;45.57
49397;BME280;35615;41.410;2.194;2023-05-14T08:17:16;101518.53;;;21.06;45.75
49397;BME280;35615;41.410;2.194;2023-05-14T08:19:47;101524.78;;;21.25;44.95
49397;BME280;35615;41.410;2.194;2023-05-14T08:22:20;101522.31;;;21.40;44.83
49397;BME280;35615;41.410;2.194;2023-05-14T08:24:48;101520.69;;;21.66;44.20
49397;BME280;35615;41.410;2.194;2023-05-14T08:27:17;101512.03;;;21.93;43.97
49397;BME280;35615;41.410;2.194;2023-05-14T08:29:47;101511.25;;;22.14;43.50
49397;BME280;35615;41.410;2.194;2023-05-14T08:32:16;101510.44;;;22.47;42.89
49397;BME280;35615;41.410;2.194;2023-05-14T08:34:52;101502.56;;;22.75;42.23
49397;BME280;35615;41.410;2.194;2023-05-14T08:37:22;101496.44;;;22.94;41.41
49397;BME280;35615;41.410;2.194;2023-05-14T08:39:51;101501.72;;;23.17;41.03
49397;BME280;35615;41.410;2.194;2023-05-14T08:42:20;101494.59;;;23.37;41.03
49397;BME280;35615;41.410;2.194;2023-05-14T08:44:48;101491.03;;;23.57;40.92
49397;BME280;35615;41.410;2.194;2023-05-14T08:47:20;101489.19;;;23.88;39.93
49397;BME280;35615;41.410;2.194;2023-05-14T08:50:00;101485.63;;;23.93;38.00
49397;BME280;35615;41.410;2.194;2023-05-14T08:52:33;101484.59;;;24.20;38.30
49397;BME280;35615;41.410;2.194;2023-05-14T08:55:03;101483.75;;;24.17;37.23
49397;BME280;35615;41.410;2.194;2023-05-14T08:57:32;101491.38;;;24.62;36.83
49397;BME280;35615;41.410;2.194;2023-05-14T09:00:58;101494.63;;;24.95;36.25
49397;BME280;35615;41.410;2.194;2023-05-14T09:03:28;101494.41;;;25.19;36.04
49397;BME280;35615;41.410;2.194;2023-05-14T09:05:57;101496.34;;;24.99;35.61
49397;BME280;35615;41.410;2.194;2023-05-14T09:08:33;101490.81;;;25.25;34.59
49397;BME280;35615;41.410;2.194;2023-05-14T09:11:04;101492.63;;;25.20;35.78
49397;BME280;35615;41.410;2.194;2023-05-14T09:13:31;101486.16;;;25.47;35.31
49397;BME280;35615;41.410;2.194;2023-05-14T09:16:02;101485.03;;;25.72;35.31
49397;BME280;35615;41.410;2.194;2023-05-14T09:18:30;101482.78;;;26.06;35.03
49397;BME280;35615;41.410;2.194;2023-05-14T09:20:58;101486.94;;;26.23;34.46
49397;BME280;35615;41.410;2.194;2023-05-14T09:23:34;101493.81;;;26.38;34.32
49397;BME280;35615;41.410;2.194;2023-05-14T09:26:07;101489.50;;;26.30;33.50
49397;BME280;35615;41.410;2.194;2023-05-14T09:28:40;101484.66;;;26.58;34.54
49397;BME280;35615;41.410;2.194;2023-05-14T09:31:08;101485.53;;;26.59;33.98
49397;BME280;35615;41.410;2.194;2023-05-14T09:33:35;101496.28;;;25.87;34.79
49397;BME280;35615;41.410;2.194;2023-05-14T09:36:05;101484.78;;;26.52;34.43
49397;BME280;35615;41.410;2.194;2023-05-14T09:38:37;101486.69;;;25.78;35.41
49397;BME280;35615;41.410;2.194;2023-05-14T09:41:06;101482.00;;;26.00;35.01
49397;BME280;35615;41.410;2.194;2023-05-14T09:43:36;101472.22;;;26.03;33.75
49397;BME280;35615;41.410;2.194;2023-05-14T09:46:06;101478.28;;;26.12;34.27
49397;BME280;35615;41.410;2.194;2023-05-14T09:48:35;101477.38;;;25.45;34.96
49397;BME280;35615;41.410;2.194;2023-05-14T09:51:03;101479.19;;;25.38;36.00
49397;BME280;35615;41.410;2.194;2023-05-14T09:53:32;101474.53;;;26.26;34.79
49397;BME280;35615;41.410;2.194;2023-05-14T09:56:00;101483.94;;;25.87;34.94
49397;BME280;35615;41.410;2.194;2023-05-14T09:58:28;101478.81;;;26.35;35.01
49397;BME280;35615;41.410;2.194;2023-05-14T10:00:56;101484.81;;;26.48;34.23
49397;BME280;35615;41.410;2.194;2023-05-14T10:03:25;101487.63;;;26.35;33.79
49397;BME280;35615;41.410;2.194;2023-05-14T10:06:03;101479.28;;;26.63;33.65
49397;BME280;35615;41.410;2.194;2023-05-14T10:08:37;101476.88;;;27.02;33.23
49397;BME280;35615;41.410;2.194;2023-05-14T10:11:12;101486.94;;;26.24;32.91
49397;BME280;35615;41.410;2.194;2023-05-14T10:13:48;101473.50;;;26.38;33.70
49397;BME280;35615;41.410;2.194;2023-05-14T10:16:29;101480.69;;;26.30;33.95
49397;BME280;35615;41.410;2.194;2023-05-14T10:19:10;101468.91;;;26.51;33.14
49397;BME280;35615;41.410;2.194;2023-05-14T10:21:40;101478.91;;;26.30;34.15
49397;BME280;35615;41.410;2.194;2023-05-14T10:24:08;101474.56;;;25.57;34.51
49397;BME280;35615;41.410;2.194;2023-05-14T10:26:39;101479.88;;;26.23;33.55
49397;BME280;35615;41.410;2.194;2023-05-14T10:29:11;101471.59;;;26.46;33.72
49397;BME280;35615;41.410;2.194;2023-05-14T10:31:50;101480.84;;;25.50;35.01
49397;BME280;35615;41.410;2.194;2023-05-14T10:34:42;101476.75;;;25.22;34.52
49397;BME280;35615;41.410;2.194;2023-05-14T10:37:23;101490.19;;;24.94;35.13
49397;BME280;35615;41.410;2.194;2023-05-14T10:40:10;101475.22;;;24.93;35.94
49397;BME280;35615;41.410;2.194;2023-05-14T10:42:45;101477.47;;;24.38;37.88
49397;BME280;35615;41.410;2.194;2023-05-14T10:45:13;101480.34;;;25.13;36.82
49397;BME280;35615;41.410;2.194;2023-05-14T10:47:47;101472.78;;;24.70;38.26
49397;BME280;35615;41.410;2.194;2023-05-14T10:50:15;101471.81;;;24.85;37.83
49397;BME280;35615;41.410;2.194;2023-05-14T10:52:44;101481.75;;;24.55;38.17
49397;BME280;35615;41.410;2.194;2023-05-14T10:55:13;101462.00;;;24.96;38.35
49397;BME280;35615;41.410;2.194;2023-05-14T10:57:45;101469.41;;;25.46;36.85
49397;BME280;35615;41.410;2.194;2023-05-14T11:00:16;101467.59;;;25.52;36.77
49397;BME280;35615;41.410;2.194;2023-05-14T11:02:44;101478.38;;;25.33;37.01
49397;BME280;35615;41.410;2.194;2023-05-14T11:05:14;101474.00;;;24.23;38.75
49397;BME280;35615;41.410;2.194;2023-05-14T11:07:47;101469.97;;;24.90;37.97
49397;BME280;35615;41.410;2.194;2023-05-14T11:10:19;101465.63;;;24.83;37.33
49397;BME280;35615;41.410;2.194;2023-05-14T11:12:49;101469.91;;;24.98;37.40
49397;BME280;35615;41.410;2.194;2023-05-14T11:15:23;101459.44;;;24.87;37.29
49397;BME280;35615;41.410;2.194;2023-05-14T11:17:54;101457.31;;;24.20;38.24
49397;BME280;35615;41.410;2.194;2023-05-14T11:20:24;101449.38;;;24.23;38.01
49397;BME280;35615;41.410;2.194;2023-05-14T11:22:53;101458.06;;;24.43;37.67
49397;BME280;35615;41.410;2.194;2023-05-14T11:25:29;101450.22;;;24.26;37.32
49397;BME280;35615;41.410;2.194;2023-05-14T11:27:57;101443.84;;;24.58;37.06
49397;BME280;35615;41.410;2.194;2023-05-14T11:30:26;101433.63;;;24.09;37.73
49397;BME280;35615;41.410;2.194;2023-05-14T11:32:59;101429.09;;;24.28;37.76
49397;BME280;35615;41.410;2.194;2023-05-14T11:35:30;101421.16;;;24.34;38.09
49397;BME280;35615;41.410;2.194;2023-05-14T11:37:59;101428.13;;;24.44;37.41
49397;BME280;35615;41.410;2.194;2023-05-14T11:40:30;101434.25;;;24.51;36.70
49397;BME280;35615;41.410;2.194;2023-05-14T11:43:07;101427.91;;;24.69;35.49
49397;BME280;35615;41.410;2.194;2023-05-14T11:45:37;101425.44;;;24.50;36.55
49397;BME280;35615;41.410;2.194;2023-05-14T11:48:11;101415.69;;;24.55;38.24
49397;BME280;35615;41.410;2.194;2023-05-14T11:50:48;101407.66;;;24.68;38.75
49397;BME280;35615;41.410;2.194;2023-05-14T11:53:29;101410.03;;;24.92;38.13
49397;BME280;35615;41.410;2.194;2023-05-14T11:55:58;101412.63;;;25.00;37.88
49397;BME280;35615;41.410;2.194;2023-05-14T11:58:25;101420.56;;;24.98;37.06
49397;BME280;35615;41.410;2.194;2023-05-14T12:00:58;101423.69;;;24.46;35.99
49397;BME280;35615;41.410;2.194;2023-05-14T12:03:25;101415.84;;;24.36;36.11
49397;BME280;35615;41.410;2.194;2023-05-14T12:05:59;101414.56;;;24.81;36.27
49397;BME280;35615;41.410;2.194;2023-05-14T12:08:29;101416.53;;;25.45;35.53
49397;BME280;35615;41.410;2.194;2023-05-14T12:11:02;101411.97;;;25.56;35.40
49397;BME280;35615;41.410;2.194;2023-05-14T12:13:35;101397.00;;;24.77;36.19
49397;BME280;35615;41.410;2.194;2023-05-14T12:16:07;101412.16;;;24.56;36.61
49397;BME280;35615;41.410;2.194;2023-05-14T12:18:36;101409.00;;;24.07;37.86
49397;BME280;35615;41.410;2.194;2023-05-14T12:21:04;101415.34;;;23.77;38.42
49397;BME280;35615;41.410;2.194;2023-05-14T12:23:34;101411.00;;;23.58;38.72
49397;BME280;35615;41.410;2.194;2023-05-14T12:26:03;101414.34;;;23.98;38.27
49397;BME280;35615;41.410;2.194;2023-05-14T12:28:40;101412.56;;;24.01;38.19
49397;BME280;35615;41.410;2.194;2023-05-14T12:31:10;101405.25;;;24.39;38.13
49397;BME280;35615;41.410;2.194;2023-05-14T12:33:44;101419.06;;;23.26;38.34
49397;BME280;35615;41.410;2.194;2023-05-14T12:36:11;101408.53;;;23.24;39.95
49397;BME280;35615;41.410;2.194;2023-05-14T12:38:57;101399.47;;;23.85;39.60
49397;BME280;35615;41.410;2.194;2023-05-14T12:41:24;101408.59;;;22.72;40.75
49397;BME280;35615;41.410;2.194;2023-05-14T12:43:58;101408.63;;;22.77;41.54
49397;BME280;35615;41.410;2.194;2023-05-14T12:46:27;101407.66;;;23.28;41.24
49397;BME280;35615;41.410;2.194;2023-05-14T12:48:55;101418.25;;;23.10;41.19
49397;BME280;35615;41.410;2.194;2023-05-14T12:51:28;101411.03;;;23.61;40.74
49397;BME280;35615;41.410;2.194;2023-05-14T12:54:01;101401.19;;;23.90;40.32
49397;BME280;35615;41.410;2.194;2023-05-14T12:56:31;101399.47;;;23.85;40.77
49397;BME280;35615;41.410;2.194;2023-05-14T12:59:05;101403.28;;;23.19;41.23
49397;BME280;35615;41.410;2.194;2023-05-14T13:01:35;101403.25;;;23.24;41.35
49397;BME280;35615;41.410;2.194;2023-05-14T13:04:04;101405.00;;;23.31;41.08
49397;BME280;35615;41.410;2.194;2023-05-14T13:06:32;101391.78;;;23.33;41.53
49397;BME280;35615;41.410;2.194;2023-05-14T13:09:00;101393.50;;;23.38;41.11
49397;BME280;35615;41.410;2.194;2023-05-14T13:11:30;101404.06;;;23.38;41.26
49397;BME280;35615;41.410;2.194;2023-05-14T13:14:02;101397.19;;;22.90;42.88